sensor_id;sensor_type;location;lat;lon;timestamp;temperature;humidity
38514;DHT22;24282;48.400;10.808;2022-10-16T00:02:02;13.90;88.40
38514;DHT22;24282;48.400;10.808;2022-10-16T00:04:28;13.80;88.40
38514;DHT22;24282;48.400;10.808;2022-10-16T00:06:54;13.70;88.40
38514;DHT22;24282;48.400;10.808;2022-10-16T00:09:19;13.70;88.50
38514;DHT22;24282;48.400;10.808;2022-10-16T00:11:45;13.70;88.30
38514;DHT22;24282;48.400;10.808;2022-10-16T00:14:12;13.70;88.20
38514;DHT22;24282;48.400;10.808;2022-10-16T00:16:39;13.70;88.20
38514;DHT22;24282;48.400;10.808;2022-10-16T00:19:05;13.60;88.20
38514;DHT22;24282;48.400;10.808;2022-10-16T00:21:31;13.60;88.20
38514;DHT22;24282;48.400;10.808;2022-10-16T00:23:59;13.60;88.30
38514;DHT22;24282;48.400;10.808;2022-10-16T00:26:27;13.60;88.40
38514;DHT22;24282;48.400;10.808;2022-10-16T00:28:53;13.50;88.30
38514;DHT22;24282;48.400;10.808;2022-10-16T00:31:20;13.60;88.20
38514;DHT22;24282;48.400;10.808;2022-10-16T00:33:47;13.50;88.30
38514;DHT22;24282;48.400;10.808;2022-10-16T00:36:15;13.50;88.20
38514;DHT22;24282;48.400;10.808;2022-10-16T00:38:41;13.40;88.30
38514;DHT22;24282;48.400;10.808;2022-10-16T00:41:10;13.50;88.50
38514;DHT22;24282;48.400;10.808;2022-10-16T00:46:39;13.50;88.40
38514;DHT22;24282;48.400;10.808;2022-10-16T00:51:47;13.60;88.40
38514;DHT22;24282;48.400;10.808;2022-10-16T00:54:21;13.60;88.40
38514;DHT22;24282;48.400;10.808;2022-10-16T00:56:48;13.60;88.30
38514;DHT22;24282;48.400;10.808;2022-10-16T00:59:33;13.60;88.30
38514;DHT22;24282;48.400;10.808;2022-10-16T01:02:00;13.50;88.10
38514;DHT22;24282;48.400;10.808;2022-10-16T01:04:32;13.60;88.00
38514;DHT22;24282;48.400;10.808;2022-10-16T01:07:27;13.50;88.10
38514;DHT22;24282;48.400;10.808;2022-10-16T01:10:10;13.50;88.20
38514;DHT22;24282;48.400;10.808;2022-10-16T01:15:31;13.50;88.30
38514;DHT22;24282;48.400;10.808;2022-10-16T01:18:16;13.40;88.40
38514;DHT22;24282;48.400;10.808;2022-10-16T01:28:51;13.40;88.70
38514;DHT22;24282;48.400;10.808;2022-10-16T01:31:21;13.40;88.80
38514;DHT22;24282;48.400;10.808;2022-10-16T01:33:54;13.40;88.80
38514;DHT22;24282;48.400;10.808;2022-10-16T01:36:27;13.40;88.60
38514;DHT22;24282;48.400;10.808;2022-10-16T01:38:55;13.40;88.70
38514;DHT22;24282;48.400;10.808;2022-10-16T01:41:27;13.40;88.80
38514;DHT22;24282;48.400;10.808;2022-10-16T01:46:24;13.30;88.70
38514;DHT22;24282;48.400;10.808;2022-10-16T01:48:52;13.30;88.50
38514;DHT22;24282;48.400;10.808;2022-10-16T01:51:19;13.30;88.40
38514;DHT22;24282;48.400;10.808;2022-10-16T01:53:53;13.20;88.30
38514;DHT22;24282;48.400;10.808;2022-10-16T01:56:20;13.10;88.30
38514;DHT22;24282;48.400;10.808;2022-10-16T02:01:26;13.10;88.30
38514;DHT22;24282;48.400;10.808;2022-10-16T02:03:56;13.00;88.30
38514;DHT22;24282;48.400;10.808;2022-10-16T02:06:23;13.00;88.30
38514;DHT22;24282;48.400;10.808;2022-10-16T02:08:50;13.00;88.30
38514;DHT22;24282;48.400;10.808;2022-10-16T02:11:16;13.00;88.40
38514;DHT22;24282;48.400;10.808;2022-10-16T02:13:45;13.00;88.50
38514;DHT22;24282;48.400;10.808;2022-10-16T02:16:12;13.00;88.60
38514;DHT22;24282;48.400;10.808;2022-10-16T02:18:40;13.00;88.70
38514;DHT22;24282;48.400;10.808;2022-10-16T02:23:49;13.00;88.50
38514;DHT22;24282;48.400;10.808;2022-10-16T02:26:27;13.00;88.60
38514;DHT22;24282;48.400;10.808;2022-10-16T02:28:58;13.00;88.80
38514;DHT22;24282;48.400;10.808;2022-10-16T02:31:28;13.00;88.80
38514;DHT22;24282;48.400;10.808;2022-10-16T02:33:58;13.00;88.80
38514;DHT22;24282;48.400;10.808;2022-10-16T02:36:26;13.00;88.80
38514;DHT22;24282;48.400;10.808;2022-10-16T02:38:53;12.90;88.80
38514;DHT22;24282;48.400;10.808;2022-10-16T02:41:21;12.90;88.80
38514;DHT22;24282;48.400;10.808;2022-10-16T02:43:47;12.90;88.90
38514;DHT22;24282;48.400;10.808;2022-10-16T02:46:13;13.00;88.80
38514;DHT22;24282;48.400;10.808;2022-10-16T02:48:39;12.90;89.00
38514;DHT22;24282;48.400;10.808;2022-10-16T02:51:05;12.90;89.10
38514;DHT22;24282;48.400;10.808;2022-10-16T02:53:30;13.00;89.30
38514;DHT22;24282;48.400;10.808;2022-10-16T02:55:56;12.90;89.30
38514;DHT22;24282;48.400;10.808;2022-10-16T02:58:22;13.00;89.20
38514;DHT22;24282;48.400;10.808;2022-10-16T03:00:47;13.00;89.30
38514;DHT22;24282;48.400;10.808;2022-10-16T03:03:13;13.00;89.40
38514;DHT22;24282;48.400;10.808;2022-10-16T03:05:39;12.90;89.20
38514;DHT22;24282;48.400;10.808;2022-10-16T03:08:04;13.00;89.10
38514;DHT22;24282;48.400;10.808;2022-10-16T03:10:30;13.00;89.10
38514;DHT22;24282;48.400;10.808;2022-10-16T03:12:56;13.00;89.10
38514;DHT22;24282;48.400;10.808;2022-10-16T03:15:22;13.00;89.10
38514;DHT22;24282;48.400;10.808;2022-10-16T03:17:47;13.00;89.10
38514;DHT22;24282;48.400;10.808;2022-10-16T03:20:13;13.00;89.20
38514;DHT22;24282;48.400;10.808;2022-10-16T03:22:39;13.00;89.20
38514;DHT22;24282;48.400;10.808;2022-10-16T03:25:05;13.00;89.10
38514;DHT22;24282;48.400;10.808;2022-10-16T03:27:31;13.00;89.00
38514;DHT22;24282;48.400;10.808;2022-10-16T03:29:57;13.00;89.00
38514;DHT22;24282;48.400;10.808;2022-10-16T03:32:23;13.00;89.00
38514;DHT22;24282;48.400;10.808;2022-10-16T03:34:50;13.00;89.00
38514;DHT22;24282;48.400;10.808;2022-10-16T03:37:16;13.00;89.10
38514;DHT22;24282;48.400;10.808;2022-10-16T03:39:41;12.90;89.10
38514;DHT22;24282;48.400;10.808;2022-10-16T03:42:07;13.00;89.20
38514;DHT22;24282;48.400;10.808;2022-10-16T03:44:33;12.90;89.30
38514;DHT22;24282;48.400;10.808;2022-10-16T03:46:58;13.00;89.40
38514;DHT22;24282;48.400;10.808;2022-10-16T03:49:24;12.90;89.40
38514;DHT22;24282;48.400;10.808;2022-10-16T03:51:50;12.90;89.40
38514;DHT22;24282;48.400;10.808;2022-10-16T03:54:15;12.90;89.50
38514;DHT22;24282;48.400;10.808;2022-10-16T03:56:41;12.90;89.50
38514;DHT22;24282;48.400;10.808;2022-10-16T03:59:07;13.00;89.50
38514;DHT22;24282;48.400;10.808;2022-10-16T04:01:33;12.90;89.50
38514;DHT22;24282;48.400;10.808;2022-10-16T04:03:59;12.90;89.70
38514;DHT22;24282;48.400;10.808;2022-10-16T04:06:24;13.00;89.70
38514;DHT22;24282;48.400;10.808;2022-10-16T04:08:50;13.00;89.70
38514;DHT22;24282;48.400;10.808;2022-10-16T04:11:16;13.00;89.80
38514;DHT22;24282;48.400;10.808;2022-10-16T04:13:41;13.00;89.90
38514;DHT22;24282;48.400;10.808;2022-10-16T04:16:07;13.00;89.90
38514;DHT22;24282;48.400;10.808;2022-10-16T04:18:33;13.00;89.90
38514;DHT22;24282;48.400;10.808;2022-10-16T04:21:06;13.00;89.90
38514;DHT22;24282;48.400;10.808;2022-10-16T04:23:33;13.00;90.00
38514;DHT22;24282;48.400;10.808;2022-10-16T04:25:59;13.00;90.00
38514;DHT22;24282;48.400;10.808;2022-10-16T04:28:26;13.00;90.00
38514;DHT22;24282;48.400;10.808;2022-10-16T04:30:52;13.00;90.00
38514;DHT22;24282;48.400;10.808;2022-10-16T04:33:21;13.00;89.90
38514;DHT22;24282;48.400;10.808;2022-10-16T04:35:46;13.00;89.90
38514;DHT22;24282;48.400;10.808;2022-10-16T04:38:13;13.00;89.90
38514;DHT22;24282;48.400;10.808;2022-10-16T04:40:41;13.00;90.00
38514;DHT22;24282;48.400;10.808;2022-10-16T04:43:07;13.00;90.00
38514;DHT22;24282;48.400;10.808;2022-10-16T04:45:33;13.00;90.00
38514;DHT22;24282;48.400;10.808;2022-10-16T04:47:59;13.00;90.00
38514;DHT22;24282;48.400;10.808;2022-10-16T04:50:25;13.00;89.90
38514;DHT22;24282;48.400;10.808;2022-10-16T04:53:04;13.00;89.90
38514;DHT22;24282;48.400;10.808;2022-10-16T04:55:30;13.00;89.90
38514;DHT22;24282;48.400;10.808;2022-10-16T04:57:55;13.00;89.90
38514;DHT22;24282;48.400;10.808;2022-10-16T05:00:21;13.00;89.80
38514;DHT22;24282;48.400;10.808;2022-10-16T05:02:49;12.90;89.70
38514;DHT22;24282;48.400;10.808;2022-10-16T05:05:15;12.90;89.70
38514;DHT22;24282;48.400;10.808;2022-10-16T05:07:40;12.90;89.60
38514;DHT22;24282;48.400;10.808;2022-10-16T05:10:06;12.90;89.40
38514;DHT22;24282;48.400;10.808;2022-10-16T05:12:33;12.90;89.30
38514;DHT22;24282;48.400;10.808;2022-10-16T05:14:59;12.90;89.30
38514;DHT22;24282;48.400;10.808;2022-10-16T05:17:26;12.90;89.40
38514;DHT22;24282;48.400;10.808;2022-10-16T05:19:51;12.80;89.30
38514;DHT22;24282;48.400;10.808;2022-10-16T05:22:17;12.70;89.30
38514;DHT22;24282;48.400;10.808;2022-10-16T05:24:43;12.70;89.30
38514;DHT22;24282;48.400;10.808;2022-10-16T05:27:10;12.70;89.10
38514;DHT22;24282;48.400;10.808;2022-10-16T05:29:36;12.70;89.10
38514;DHT22;24282;48.400;10.808;2022-10-16T05:32:02;12.70;89.10
38514;DHT22;24282;48.400;10.808;2022-10-16T05:34:28;12.70;89.00
38514;DHT22;24282;48.400;10.808;2022-10-16T05:36:54;12.60;89.00
38514;DHT22;24282;48.400;10.808;2022-10-16T05:39:20;12.60;89.10
38514;DHT22;24282;48.400;10.808;2022-10-16T05:41:46;12.60;89.10
38514;DHT22;24282;48.400;10.808;2022-10-16T05:44:11;12.60;89.10
38514;DHT22;24282;48.400;10.808;2022-10-16T05:46:37;12.60;89.20
38514;DHT22;24282;48.400;10.808;2022-10-16T05:49:03;12.60;89.10
38514;DHT22;24282;48.400;10.808;2022-10-16T05:51:29;12.60;89.00
38514;DHT22;24282;48.400;10.808;2022-10-16T05:53:54;12.60;89.00
38514;DHT22;24282;48.400;10.808;2022-10-16T05:56:20;12.50;89.00
38514;DHT22;24282;48.400;10.808;2022-10-16T05:58:46;12.50;89.00
38514;DHT22;24282;48.400;10.808;2022-10-16T06:01:14;12.50;89.00
38514;DHT22;24282;48.400;10.808;2022-10-16T06:03:40;12.50;89.00
38514;DHT22;24282;48.400;10.808;2022-10-16T06:06:17;12.50;89.00
38514;DHT22;24282;48.400;10.808;2022-10-16T06:08:45;12.50;89.20
38514;DHT22;24282;48.400;10.808;2022-10-16T06:11:16;12.60;89.20
38514;DHT22;24282;48.400;10.808;2022-10-16T06:13:42;12.60;89.30
38514;DHT22;24282;48.400;10.808;2022-10-16T06:16:09;12.60;89.40
38514;DHT22;24282;48.400;10.808;2022-10-16T06:18:35;12.60;89.50
38514;DHT22;24282;48.400;10.808;2022-10-16T06:21:08;12.60;89.50
38514;DHT22;24282;48.400;10.808;2022-10-16T06:23:35;12.60;89.40
38514;DHT22;24282;48.400;10.808;2022-10-16T06:26:06;12.60;89.40
38514;DHT22;24282;48.400;10.808;2022-10-16T06:28:31;12.70;89.40
38514;DHT22;24282;48.400;10.808;2022-10-16T06:31:02;12.70;89.50
38514;DHT22;24282;48.400;10.808;2022-10-16T06:33:28;12.70;89.60
38514;DHT22;24282;48.400;10.808;2022-10-16T06:35:54;12.70;89.60
38514;DHT22;24282;48.400;10.808;2022-10-16T06:38:25;12.70;89.70
38514;DHT22;24282;48.400;10.808;2022-10-16T06:40:50;12.70;89.70
38514;DHT22;24282;48.400;10.808;2022-10-16T06:43:16;12.70;89.80
38514;DHT22;24282;48.400;10.808;2022-10-16T06:45:42;12.70;89.90
38514;DHT22;24282;48.400;10.808;2022-10-16T06:48:07;12.80;89.90
38514;DHT22;24282;48.400;10.808;2022-10-16T06:50:33;12.80;89.90
38514;DHT22;24282;48.400;10.808;2022-10-16T06:52:59;12.90;90.00
38514;DHT22;24282;48.400;10.808;2022-10-16T06:55:24;12.90;89.90
38514;DHT22;24282;48.400;10.808;2022-10-16T06:57:50;12.90;89.90
38514;DHT22;24282;48.400;10.808;2022-10-16T07:00:16;12.90;89.90
38514;DHT22;24282;48.400;10.808;2022-10-16T07:02:41;13.00;89.90
38514;DHT22;24282;48.400;10.808;2022-10-16T07:05:07;13.00;89.90
38514;DHT22;24282;48.400;10.808;2022-10-16T07:07:33;13.00;89.90
38514;DHT22;24282;48.400;10.808;2022-10-16T07:09:59;13.10;90.00
38514;DHT22;24282;48.400;10.808;2022-10-16T07:12:24;13.20;90.00
38514;DHT22;24282;48.400;10.808;2022-10-16T07:14:50;13.20;90.00
38514;DHT22;24282;48.400;10.808;2022-10-16T07:17:17;13.30;90.00
38514;DHT22;24282;48.400;10.808;2022-10-16T07:19:44;13.40;90.00
38514;DHT22;24282;48.400;10.808;2022-10-16T07:22:10;13.40;90.00
38514;DHT22;24282;48.400;10.808;2022-10-16T07:24:35;13.40;90.00
38514;DHT22;24282;48.400;10.808;2022-10-16T07:27:01;13.50;90.00
38514;DHT22;24282;48.400;10.808;2022-10-16T07:29:27;13.60;90.10
38514;DHT22;24282;48.400;10.808;2022-10-16T07:31:53;13.60;90.20
38514;DHT22;24282;48.400;10.808;2022-10-16T07:34:19;13.70;90.40
38514;DHT22;24282;48.400;10.808;2022-10-16T07:36:50;13.70;90.60
38514;DHT22;24282;48.400;10.808;2022-10-16T07:39:17;13.80;90.60
38514;DHT22;24282;48.400;10.808;2022-10-16T07:41:42;13.90;90.60
38514;DHT22;24282;48.400;10.808;2022-10-16T07:44:08;13.90;90.60
38514;DHT22;24282;48.400;10.808;2022-10-16T07:46:35;13.90;90.60
38514;DHT22;24282;48.400;10.808;2022-10-16T07:49:02;13.90;90.50
38514;DHT22;24282;48.400;10.808;2022-10-16T07:51:28;14.00;90.50
38514;DHT22;24282;48.400;10.808;2022-10-16T07:53:54;14.10;90.40
38514;DHT22;24282;48.400;10.808;2022-10-16T07:56:21;14.20;90.20
38514;DHT22;24282;48.400;10.808;2022-10-16T07:58:47;14.20;89.90
38514;DHT22;24282;48.400;10.808;2022-10-16T08:01:16;14.30;89.60
38514;DHT22;24282;48.400;10.808;2022-10-16T08:03:47;14.40;89.50
38514;DHT22;24282;48.400;10.808;2022-10-16T08:06:14;14.50;89.20
38514;DHT22;24282;48.400;10.808;2022-10-16T08:08:40;14.60;89.10
38514;DHT22;24282;48.400;10.808;2022-10-16T08:11:06;14.70;89.10
38514;DHT22;24282;48.400;10.808;2022-10-16T08:13:32;14.80;88.80
38514;DHT22;24282;48.400;10.808;2022-10-16T08:15:58;14.80;88.60
38514;DHT22;24282;48.400;10.808;2022-10-16T08:18:24;14.90;88.80
38514;DHT22;24282;48.400;10.808;2022-10-16T08:20:55;15.00;89.10
38514;DHT22;24282;48.400;10.808;2022-10-16T08:23:22;15.10;89.00
38514;DHT22;24282;48.400;10.808;2022-10-16T08:25:48;15.30;88.90
38514;DHT22;24282;48.400;10.808;2022-10-16T08:28:14;15.60;88.40
38514;DHT22;24282;48.400;10.808;2022-10-16T08:30:40;15.80;87.70
38514;DHT22;24282;48.400;10.808;2022-10-16T08:33:05;16.10;86.80
38514;DHT22;24282;48.400;10.808;2022-10-16T08:35:31;16.40;86.00
38514;DHT22;24282;48.400;10.808;2022-10-16T08:37:57;16.50;85.30
38514;DHT22;24282;48.400;10.808;2022-10-16T08:40:25;16.70;84.30
38514;DHT22;24282;48.400;10.808;2022-10-16T08:51:02;17.90;80.10
38514;DHT22;24282;48.400;10.808;2022-10-16T08:53:56;18.10;80.00
38514;DHT22;24282;48.400;10.808;2022-10-16T08:56:22;18.20;79.20
38514;DHT22;24282;48.400;10.808;2022-10-16T08:58:48;18.20;78.70
38514;DHT22;24282;48.400;10.808;2022-10-16T09:01:16;18.30;78.10
38514;DHT22;24282;48.400;10.808;2022-10-16T09:04:02;18.30;78.20
38514;DHT22;24282;48.400;10.808;2022-10-16T09:17:39;18.50;77.10
38514;DHT22;24282;48.400;10.808;2022-10-16T09:20:33;18.60;76.20
38514;DHT22;24282;48.400;10.808;2022-10-16T09:25:46;18.90;75.70
38514;DHT22;24282;48.400;10.808;2022-10-16T09:28:13;18.90;75.30
38514;DHT22;24282;48.400;10.808;2022-10-16T09:30:39;18.90;73.90
38514;DHT22;24282;48.400;10.808;2022-10-16T09:33:06;19.00;71.70
38514;DHT22;24282;48.400;10.808;2022-10-16T09:35:43;19.10;72.40
38514;DHT22;24282;48.400;10.808;2022-10-16T09:38:24;19.10;71.80
38514;DHT22;24282;48.400;10.808;2022-10-16T09:40:50;19.20;73.70
38514;DHT22;24282;48.400;10.808;2022-10-16T09:46:00;19.20;74.10
38514;DHT22;24282;48.400;10.808;2022-10-16T09:48:31;19.20;74.10
38514;DHT22;24282;48.400;10.808;2022-10-16T09:51:02;19.30;73.80
38514;DHT22;24282;48.400;10.808;2022-10-16T09:53:43;19.20;74.50
38514;DHT22;24282;48.400;10.808;2022-10-16T09:56:11;19.20;75.50
38514;DHT22;24282;48.400;10.808;2022-10-16T09:58:43;19.20;75.60
38514;DHT22;24282;48.400;10.808;2022-10-16T10:01:14;19.10;75.20
38514;DHT22;24282;48.400;10.808;2022-10-16T10:03:43;19.10;75.70
38514;DHT22;24282;48.400;10.808;2022-10-16T10:06:25;19.00;76.00
38514;DHT22;24282;48.400;10.808;2022-10-16T10:14:40;19.00;76.30
38514;DHT22;24282;48.400;10.808;2022-10-16T10:17:18;19.00;75.80
38514;DHT22;24282;48.400;10.808;2022-10-16T10:19:52;19.10;75.90
38514;DHT22;24282;48.400;10.808;2022-10-16T10:22:43;19.20;76.70
38514;DHT22;24282;48.400;10.808;2022-10-16T10:32:43;19.40;72.90
38514;DHT22;24282;48.400;10.808;2022-10-16T10:35:16;19.40;72.70
38514;DHT22;24282;48.400;10.808;2022-10-16T10:46:54;19.70;70.90
38514;DHT22;24282;48.400;10.808;2022-10-16T11:06:33;20.40;66.00
38514;DHT22;24282;48.400;10.808;2022-10-16T11:09:07;20.40;64.80
38514;DHT22;24282;48.400;10.808;2022-10-16T11:11:56;20.40;66.10
38514;DHT22;24282;48.400;10.808;2022-10-16T11:14:34;20.50;68.10
38514;DHT22;24282;48.400;10.808;2022-10-16T11:17:19;20.50;66.00
38514;DHT22;24282;48.400;10.808;2022-10-16T11:20:12;20.70;64.80
38514;DHT22;24282;48.400;10.808;2022-10-16T11:22:48;20.70;65.40
38514;DHT22;24282;48.400;10.808;2022-10-16T11:33:47;20.90;65.70
38514;DHT22;24282;48.400;10.808;2022-10-16T11:36:19;20.90;65.80
38514;DHT22;24282;48.400;10.808;2022-10-16T11:46:58;20.90;66.30
38514;DHT22;24282;48.400;10.808;2022-10-16T11:49:28;20.90;65.20
38514;DHT22;24282;48.400;10.808;2022-10-16T11:54:47;20.80;68.50
38514;DHT22;24282;48.400;10.808;2022-10-16T11:57:27;20.80;68.60
38514;DHT22;24282;48.400;10.808;2022-10-16T12:00:19;20.80;68.60
38514;DHT22;24282;48.400;10.808;2022-10-16T12:03:33;20.80;67.30
38514;DHT22;24282;48.400;10.808;2022-10-16T12:08:54;20.70;66.50
38514;DHT22;24282;48.400;10.808;2022-10-16T12:19:17;20.90;66.40
38514;DHT22;24282;48.400;10.808;2022-10-16T12:21:44;20.90;63.80
38514;DHT22;24282;48.400;10.808;2022-10-16T12:24:41;20.90;64.20
38514;DHT22;24282;48.400;10.808;2022-10-16T12:27:30;20.90;63.70
38514;DHT22;24282;48.400;10.808;2022-10-16T12:29:59;20.90;64.60
38514;DHT22;24282;48.400;10.808;2022-10-16T12:32:37;20.90;64.10
38514;DHT22;24282;48.400;10.808;2022-10-16T12:35:16;21.00;64.00
38514;DHT22;24282;48.400;10.808;2022-10-16T12:37:42;21.00;64.60
38514;DHT22;24282;48.400;10.808;2022-10-16T12:40:28;21.10;65.00
38514;DHT22;24282;48.400;10.808;2022-10-16T12:42:55;21.00;65.00
38514;DHT22;24282;48.400;10.808;2022-10-16T12:45:32;21.10;64.80
38514;DHT22;24282;48.400;10.808;2022-10-16T12:48:01;21.10;64.20
38514;DHT22;24282;48.400;10.808;2022-10-16T12:52:59;21.00;64.10
38514;DHT22;24282;48.400;10.808;2022-10-16T12:55:25;20.90;64.50
38514;DHT22;24282;48.400;10.808;2022-10-16T13:00:54;20.80;64.40
38514;DHT22;24282;48.400;10.808;2022-10-16T13:12:10;20.70;65.00
38514;DHT22;24282;48.400;10.808;2022-10-16T13:29:45;20.80;63.50
38514;DHT22;24282;48.400;10.808;2022-10-16T13:32:11;20.80;62.00
38514;DHT22;24282;48.400;10.808;2022-10-16T13:34:45;20.80;61.90
38514;DHT22;24282;48.400;10.808;2022-10-16T13:37:22;20.70;62.70
38514;DHT22;24282;48.400;10.808;2022-10-16T13:39:49;20.80;63.00
38514;DHT22;24282;48.400;10.808;2022-10-16T13:44:53;20.90;63.40
38514;DHT22;24282;48.400;10.808;2022-10-16T13:47:23;21.00;63.50
38514;DHT22;24282;48.400;10.808;2022-10-16T13:50:04;21.20;62.70
38514;DHT22;24282;48.400;10.808;2022-10-16T13:52:30;21.10;62.50
38514;DHT22;24282;48.400;10.808;2022-10-16T13:54:56;21.20;62.10
38514;DHT22;24282;48.400;10.808;2022-10-16T13:57:23;21.10;61.80
38514;DHT22;24282;48.400;10.808;2022-10-16T13:59:50;21.20;61.50
38514;DHT22;24282;48.400;10.808;2022-10-16T14:04:51;21.00;61.90
38514;DHT22;24282;48.400;10.808;2022-10-16T14:07:29;21.00;62.20
38514;DHT22;24282;48.400;10.808;2022-10-16T14:10:21;21.00;62.60
38514;DHT22;24282;48.400;10.808;2022-10-16T14:12:45;20.90;62.90
38514;DHT22;24282;48.400;10.808;2022-10-16T14:15:19;20.90;61.40
38514;DHT22;24282;48.400;10.808;2022-10-16T14:17:49;20.80;62.30
38514;DHT22;24282;48.400;10.808;2022-10-16T14:20:16;20.80;62.80
38514;DHT22;24282;48.400;10.808;2022-10-16T14:22:42;20.80;64.00
38514;DHT22;24282;48.400;10.808;2022-10-16T14:28:18;20.60;65.60
38514;DHT22;24282;48.400;10.808;2022-10-16T14:30:53;20.60;65.10
38514;DHT22;24282;48.400;10.808;2022-10-16T14:33:33;20.60;66.00
38514;DHT22;24282;48.400;10.808;2022-10-16T14:38:31;20.60;67.00
38514;DHT22;24282;48.400;10.808;2022-10-16T14:40:59;20.60;68.10
38514;DHT22;24282;48.400;10.808;2022-10-16T14:43:35;20.60;69.10
38514;DHT22;24282;48.400;10.808;2022-10-16T14:46:12;20.60;69.00
38514;DHT22;24282;48.400;10.808;2022-10-16T14:48:50;20.50;68.90
38514;DHT22;24282;48.400;10.808;2022-10-16T14:51:18;20.50;70.90
38514;DHT22;24282;48.400;10.808;2022-10-16T14:53:44;20.50;71.40
38514;DHT22;24282;48.400;10.808;2022-10-16T14:56:22;20.40;71.30
38514;DHT22;24282;48.400;10.808;2022-10-16T14:58:50;20.40;72.10
38514;DHT22;24282;48.400;10.808;2022-10-16T15:01:16;20.40;73.90
38514;DHT22;24282;48.400;10.808;2022-10-16T15:03:42;20.40;74.70
38514;DHT22;24282;48.400;10.808;2022-10-16T15:06:13;20.30;73.50
38514;DHT22;24282;48.400;10.808;2022-10-16T15:08:40;20.30;73.30
38514;DHT22;24282;48.400;10.808;2022-10-16T15:11:13;20.20;73.30
38514;DHT22;24282;48.400;10.808;2022-10-16T15:13:40;20.20;73.30
38514;DHT22;24282;48.400;10.808;2022-10-16T15:16:14;20.10;73.60
38514;DHT22;24282;48.400;10.808;2022-10-16T15:18:40;20.10;74.20
38514;DHT22;24282;48.400;10.808;2022-10-16T15:21:06;20.00;74.60
38514;DHT22;24282;48.400;10.808;2022-10-16T15:23:32;19.90;75.20
38514;DHT22;24282;48.400;10.808;2022-10-16T15:25:58;19.90;76.40
38514;DHT22;24282;48.400;10.808;2022-10-16T15:28:24;19.80;77.10
38514;DHT22;24282;48.400;10.808;2022-10-16T15:30:55;19.80;77.60
38514;DHT22;24282;48.400;10.808;2022-10-16T15:33:24;19.70;77.80
38514;DHT22;24282;48.400;10.808;2022-10-16T15:35:53;19.70;77.40
38514;DHT22;24282;48.400;10.808;2022-10-16T15:38:20;19.60;77.40
38514;DHT22;24282;48.400;10.808;2022-10-16T15:40:47;19.60;77.70
38514;DHT22;24282;48.400;10.808;2022-10-16T15:43:13;19.50;78.30
38514;DHT22;24282;48.400;10.808;2022-10-16T15:45:39;19.40;78.70
38514;DHT22;24282;48.400;10.808;2022-10-16T15:48:05;19.40;79.30
38514;DHT22;24282;48.400;10.808;2022-10-16T15:50:32;19.30;79.60
38514;DHT22;24282;48.400;10.808;2022-10-16T15:52:58;19.20;79.80
38514;DHT22;24282;48.400;10.808;2022-10-16T15:55:24;19.10;79.50
38514;DHT22;24282;48.400;10.808;2022-10-16T15:57:50;19.10;79.30
38514;DHT22;24282;48.400;10.808;2022-10-16T16:00:18;19.10;79.30
38514;DHT22;24282;48.400;10.808;2022-10-16T16:02:53;19.00;79.60
38514;DHT22;24282;48.400;10.808;2022-10-16T16:05:20;18.90;80.20
38514;DHT22;24282;48.400;10.808;2022-10-16T16:07:46;18.90;80.50
38514;DHT22;24282;48.400;10.808;2022-10-16T16:10:12;18.80;80.80
38514;DHT22;24282;48.400;10.808;2022-10-16T16:12:38;18.70;80.90
38514;DHT22;24282;48.400;10.808;2022-10-16T16:15:05;18.70;81.20
38514;DHT22;24282;48.400;10.808;2022-10-16T16:17:33;18.60;81.30
38514;DHT22;24282;48.400;10.808;2022-10-16T16:19:58;18.50;81.40
38514;DHT22;24282;48.400;10.808;2022-10-16T16:22:24;18.40;81.50
38514;DHT22;24282;48.400;10.808;2022-10-16T16:24:50;18.40;81.60
38514;DHT22;24282;48.400;10.808;2022-10-16T16:27:16;18.40;81.30
38514;DHT22;24282;48.400;10.808;2022-10-16T16:29:41;18.40;81.00
38514;DHT22;24282;48.400;10.808;2022-10-16T16:32:07;18.30;81.30
38514;DHT22;24282;48.400;10.808;2022-10-16T16:34:33;18.20;81.60
38514;DHT22;24282;48.400;10.808;2022-10-16T16:36:59;18.10;82.00
38514;DHT22;24282;48.400;10.808;2022-10-16T16:39:25;18.10;82.30
38514;DHT22;24282;48.400;10.808;2022-10-16T16:41:51;18.00;82.50
38514;DHT22;24282;48.400;10.808;2022-10-16T16:44:17;18.00;82.80
38514;DHT22;24282;48.400;10.808;2022-10-16T16:46:44;17.90;83.00
38514;DHT22;24282;48.400;10.808;2022-10-16T16:49:11;17.90;83.20
38514;DHT22;24282;48.400;10.808;2022-10-16T16:51:38;17.90;83.40
38514;DHT22;24282;48.400;10.808;2022-10-16T16:54:05;17.80;83.60
38514;DHT22;24282;48.400;10.808;2022-10-16T16:56:32;17.80;83.80
38514;DHT22;24282;48.400;10.808;2022-10-16T16:58:58;17.70;84.00
38514;DHT22;24282;48.400;10.808;2022-10-16T17:01:26;17.60;84.10
38514;DHT22;24282;48.400;10.808;2022-10-16T17:03:54;17.60;84.20
38514;DHT22;24282;48.400;10.808;2022-10-16T17:06:23;17.60;84.20
38514;DHT22;24282;48.400;10.808;2022-10-16T17:08:50;17.60;84.10
38514;DHT22;24282;48.400;10.808;2022-10-16T17:11:24;17.50;83.80
38514;DHT22;24282;48.400;10.808;2022-10-16T17:13:51;17.50;83.70
38514;DHT22;24282;48.400;10.808;2022-10-16T17:16:20;17.50;83.70
38514;DHT22;24282;48.400;10.808;2022-10-16T17:18:45;17.40;83.90
38514;DHT22;24282;48.400;10.808;2022-10-16T17:21:11;17.40;83.90
38514;DHT22;24282;48.400;10.808;2022-10-16T17:23:38;17.30;84.00
38514;DHT22;24282;48.400;10.808;2022-10-16T17:26:06;17.30;84.10
38514;DHT22;24282;48.400;10.808;2022-10-16T17:28:32;17.20;84.20
38514;DHT22;24282;48.400;10.808;2022-10-16T17:31:19;17.20;84.20
38514;DHT22;24282;48.400;10.808;2022-10-16T17:33:46;17.10;84.20
38514;DHT22;24282;48.400;10.808;2022-10-16T17:36:12;17.10;84.10
38514;DHT22;24282;48.400;10.808;2022-10-16T17:38:40;17.00;84.20
38514;DHT22;24282;48.400;10.808;2022-10-16T17:41:20;16.90;84.20
38514;DHT22;24282;48.400;10.808;2022-10-16T17:43:46;16.90;84.10
38514;DHT22;24282;48.400;10.808;2022-10-16T17:46:14;16.90;84.20
38514;DHT22;24282;48.400;10.808;2022-10-16T17:48:43;16.80;84.20
38514;DHT22;24282;48.400;10.808;2022-10-16T17:51:12;16.70;84.20
38514;DHT22;24282;48.400;10.808;2022-10-16T17:53:39;16.70;84.10
38514;DHT22;24282;48.400;10.808;2022-10-16T17:56:06;16.60;84.10
38514;DHT22;24282;48.400;10.808;2022-10-16T17:58:32;16.60;84.20
38514;DHT22;24282;48.400;10.808;2022-10-16T18:00:58;16.50;84.30
38514;DHT22;24282;48.400;10.808;2022-10-16T18:03:24;16.50;84.40
38514;DHT22;24282;48.400;10.808;2022-10-16T18:05:52;16.50;84.30